ADDS METAR Data INFO
IDs: Format: Raw Decoded Include TAF

Data at: 0450 UTC 25 May 2018

METAR for:PAOU (Nelson Lagoon Arpt, AK, US)
Text:PAOU 250356Z AUTO 35005KT 10SM CLR 07/04 A2959 RMK AO2 SLP021 T00720039
Temperature: 7.2°C ( 45°F)
Dewpoint: 3.9°C ( 39°F) [RH = 80%]
Pressure (altimeter):29.59 inches Hg (1002.1 mb) [Sea level pressure: 1002.1 mb]
Winds:from the N (350 degrees) at 6 MPH (5 knots; 2.6 m/s)
Visibility:10 or more sm (16+ km)
Ceiling:at least 12,000 feet AGL
Clouds:sky clear below 12,000 feet AGL
QC Flag:automated observation with no human augmentation
Text:PAOU 250306Z AUTO 35008KT 10SM SCT012 07/03 A2959 RMK AO2
Temperature: 7.0°C ( 45°F)
Dewpoint: 3.0°C ( 37°F) [RH = 76%]
Pressure (altimeter):29.59 inches Hg (1002.1 mb)
Winds:from the N (350 degrees) at 9 MPH (8 knots; 4.1 m/s)
Visibility:10 or more sm (16+ km)
Ceiling:at least 12,000 feet AGL
Clouds: scattered clouds at 1200 feet AGL
QC Flag:automated observation with no human augmentation
Text:PAOU 250256Z AUTO 01008KT 10SM BKN012 07/03 A2959 RMK AO2 SLP020 T00720033 50001
Temperature: 7.2°C ( 45°F)
Dewpoint: 3.3°C ( 38°F) [RH = 76%]
Pressure (altimeter):29.59 inches Hg (1002.1 mb) [Sea level pressure: 1002.0 mb]
Winds:from the N (10 degrees) at 9 MPH (8 knots; 4.1 m/s)
Visibility:10 or more sm (16+ km)
Ceiling:1200 feet AGL
Clouds: broken clouds at 1200 feet AGL
QC Flag:automated observation with no human augmentation
Text:PAOU 250215Z AUTO 01008KT 10SM BKN012 07/03 A2959 RMK AO2
Temperature: 7.0°C ( 45°F)
Dewpoint: 3.0°C ( 37°F) [RH = 76%]
Pressure (altimeter):29.59 inches Hg (1002.1 mb)
Winds:from the N (10 degrees) at 9 MPH (8 knots; 4.1 m/s)
Visibility:10 or more sm (16+ km)
Ceiling:1200 feet AGL
Clouds: broken clouds at 1200 feet AGL
QC Flag:automated observation with no human augmentation
Text:PAOU 250206Z AUTO 01006KT 10SM SCT012 07/03 A2959 RMK AO2
Temperature: 7.0°C ( 45°F)
Dewpoint: 3.0°C ( 37°F) [RH = 76%]
Pressure (altimeter):29.59 inches Hg (1002.1 mb)
Winds:from the N (10 degrees) at 7 MPH (6 knots; 3.1 m/s)
Visibility:10 or more sm (16+ km)
Ceiling:at least 12,000 feet AGL
Clouds: scattered clouds at 1200 feet AGL
QC Flag:automated observation with no human augmentation
Text:PAOU 250156Z AUTO 36007KT 10SM BKN012 07/03 A2959 RMK AO2 SLP020 T00720033
Temperature: 7.2°C ( 45°F)
Dewpoint: 3.3°C ( 38°F) [RH = 76%]
Pressure (altimeter):29.59 inches Hg (1002.1 mb) [Sea level pressure: 1002.0 mb]
Winds:from the N (360 degrees) at 8 MPH (7 knots; 3.6 m/s)
Visibility:10 or more sm (16+ km)
Ceiling:1200 feet AGL
Clouds: broken clouds at 1200 feet AGL
QC Flag:automated observation with no human augmentation
Text:PAOU 250056Z AUTO 36007KT 10SM FEW009 07/04 A2959 RMK AO2 SLP021 T00720044
Temperature: 7.2°C ( 45°F)
Dewpoint: 4.4°C ( 40°F) [RH = 82%]
Pressure (altimeter):29.59 inches Hg (1002.1 mb) [Sea level pressure: 1002.1 mb]
Winds:from the N (360 degrees) at 8 MPH (7 knots; 3.6 m/s)
Visibility:10 or more sm (16+ km)
Ceiling:at least 12,000 feet AGL
Clouds: few clouds at 900 feet AGL
QC Flag:automated observation with no human augmentation
Text:PAOU 242356Z AUTO 01006KT 10SM FEW008 SCT075 BKN090 07/04 A2959 RMK AO2 SLP019 60000 T00720039 10078 20050 51004
Temperature: 7.2°C ( 45°F)
Dewpoint: 3.9°C ( 39°F) [RH = 80%]
Pressure (altimeter):29.59 inches Hg (1002.1 mb) [Sea level pressure: 1001.9 mb]
Winds:from the N (10 degrees) at 7 MPH (6 knots; 3.1 m/s)
Visibility:10 or more sm (16+ km)
Ceiling:9000 feet AGL
Clouds: few clouds at 800 feet AGL, scattered clouds at 7500 feet AGL, broken clouds at 9000 feet AGL
QC Flag:automated observation with no human augmentation
Text:PAOU 242311Z AUTO 35007KT 10SM FEW008 BKN060 OVC090 08/04 A2959 RMK AO2
Temperature: 8.0°C ( 46°F)
Dewpoint: 4.0°C ( 39°F) [RH = 76%]
Pressure (altimeter):29.59 inches Hg (1002.1 mb)
Winds:from the N (350 degrees) at 8 MPH (7 knots; 3.6 m/s)
Visibility:10 or more sm (16+ km)
Ceiling:6000 feet AGL
Clouds: few clouds at 800 feet AGL, broken clouds at 6000 feet AGL, overcast cloud deck at 9000 feet AGL
QC Flag:automated observation with no human augmentation
Text:PAOU 242256Z AUTO 35006KT 10SM OVC060 07/04 A2959 RMK AO2 SLP019 T00720044
Temperature: 7.2°C ( 45°F)
Dewpoint: 4.4°C ( 40°F) [RH = 82%]
Pressure (altimeter):29.59 inches Hg (1002.1 mb) [Sea level pressure: 1001.9 mb]
Winds:from the N (350 degrees) at 7 MPH (6 knots; 3.1 m/s)
Visibility:10 or more sm (16+ km)
Ceiling:6000 feet AGL
Clouds: overcast cloud deck at 6000 feet AGL
QC Flag:automated observation with no human augmentation

TAF for:PAOU (Nelson Lagoon Arpt, AK, US)
Text:No data found